Time;durP1;ratioP1;P1;durP2;ratioP2;P2;SDS_P1;SDS_P2;PMS_P1;PMS_P2;Temp;Humidity;BMP_temperature;BMP_pressure;BME280_temperature;BME280_humidity;BME280_pressure;Samples;Min_cycle;Max_cycle;Signal;HPM_P1;HPM_P2
2022/10/16 00:02:25;;;;;;;41.23;25.90;;;13.00;99.90;;;;;;10424975;28;20204;-86
2022/10/16 00:07:46;;;;;;;40.60;24.87;;;13.00;99.90;;;;;;10425220;28;20199;-86
2022/10/16 00:13:08;;;;;;;40.47;26.47;;;13.00;99.90;;;;;;10413815;28;20392;-86
2022/10/16 00:18:30;;;;;;;38.73;25.07;;;13.10;99.90;;;;;;10432486;28;20199;-86
2022/10/16 00:23:59;;;;;;;40.37;25.27;;;13.10;99.90;;;;;;10427898;28;20227;-85
2022/10/16 00:29:20;;;;;;;39.23;25.60;;;13.10;99.90;;;;;;10449394;28;20306;-86
2022/10/16 00:34:41;;;;;;;38.20;23.73;;;13.20;99.90;;;;;;10444973;28;20232;-86
2022/10/16 00:40:03;;;;;;;31.93;22.97;;;13.20;99.90;;;;;;10428659;28;20193;-85
2022/10/16 00:45:24;;;;;;;33.17;22.40;;;13.20;99.90;;;;;;10441905;28;20420;-86
2022/10/16 00:50:45;;;;;;;29.52;21.88;;;13.20;99.90;;;;;;10444356;28;20195;-85
2022/10/16 00:56:07;;;;;;;31.30;22.30;;;13.30;99.90;;;;;;10427935;28;20497;-86
2022/10/16 01:01:28;;;;;;;33.83;22.17;;;13.40;99.90;;;;;;10429812;28;20501;-86
2022/10/16 01:07:11;;;;;;;30.87;21.57;;;13.40;99.90;;;;;;10413275;28;20227;-84
2022/10/16 01:13:03;;;;;;;28.00;19.97;;;13.30;99.90;;;;;;10427146;28;20474;-85
2022/10/16 01:18:39;;;;;;;27.27;20.33;;;13.40;99.90;;;;;;10447301;28;20227;-85
2022/10/16 01:24:27;;;;;;;29.73;19.93;;;13.40;99.90;;;;;;10438663;28;20241;-86
2022/10/16 01:29:49;;;;;;;28.17;19.67;;;13.30;99.90;;;;;;10448090;28;20249;-86
2022/10/16 01:35:18;;;;;;;32.10;21.00;;;13.30;99.90;;;;;;10426581;28;20203;-86
2022/10/16 01:40:46;;;;;;;26.63;20.43;;;13.20;99.90;;;;;;10442334;28;20210;-85
2022/10/16 01:46:10;;;;;;;23.60;18.70;;;13.20;99.90;;;;;;10442035;28;20243;-85
2022/10/16 01:51:32;;;;;;;24.30;17.47;;;13.20;99.90;;;;;;10439450;28;20393;-85
2022/10/16 01:56:55;;;;;;;24.20;18.53;;;13.10;99.90;;;;;;10425366;28;20252;-85
2022/10/16 02:02:19;;;;;;;24.80;17.93;;;13.10;99.90;;;;;;10411156;28;20228;-85
2022/10/16 02:07:42;;;;;;;27.53;19.77;;;13.20;99.90;;;;;;10425012;28;20306;-86
2022/10/16 02:13:17;;;;;;;24.20;18.80;;;13.20;99.90;;;;;;10440780;28;20202;-84
2022/10/16 02:18:40;;;;;;;26.47;20.13;;;13.10;99.90;;;;;;10420963;28;20276;-83
2022/10/16 02:24:30;;;;;;;37.17;21.10;;;13.20;99.90;;;;;;10421634;28;20556;-83
2022/10/16 02:30:17;;;;;;;29.17;19.77;;;13.20;99.90;;;;;;10424759;28;20283;-83
2022/10/16 02:35:39;;;;;;;26.80;19.93;;;13.20;99.90;;;;;;10368996;28;20237;-85
2022/10/16 02:41:01;;;;;;;26.73;18.27;;;13.30;99.90;;;;;;10382746;28;20269;-85
2022/10/16 02:46:23;;;;;;;23.23;18.27;;;13.30;99.90;;;;;;10427117;28;20224;-86
2022/10/16 02:51:44;;;;;;;24.10;18.57;;;13.30;99.90;;;;;;10485164;28;20201;-86
2022/10/16 02:57:05;;;;;;;30.47;20.57;;;13.30;99.90;;;;;;10478285;28;20247;-86
2022/10/16 03:02:27;;;;;;;25.23;19.93;;;13.30;99.90;;;;;;10480975;28;20205;-86
2022/10/16 03:07:48;;;;;;;25.03;18.30;;;13.40;99.90;;;;;;10464126;28;20230;-86
2022/10/16 03:13:09;;;;;;;32.93;23.53;;;13.40;99.90;;;;;;10464246;28;20190;-86
2022/10/16 03:18:30;;;;;;;30.97;22.77;;;13.40;99.90;;;;;;10453558;28;20452;-85
2022/10/16 03:23:52;;;;;;;28.73;22.20;;;13.40;99.90;;;;;;10450230;28;20225;-86
2022/10/16 03:29:13;;;;;;;28.83;22.63;;;13.40;99.90;;;;;;10429687;28;20241;-86
2022/10/16 03:34:35;;;;;;;27.53;21.37;;;13.40;99.90;;;;;;10455412;28;20207;-83
2022/10/16 03:39:56;;;;;;;28.27;19.93;;;13.40;99.90;;;;;;10455186;28;20281;-85
2022/10/16 03:45:17;;;;;;;29.10;22.67;;;13.50;99.90;;;;;;10435916;28;20563;-86
2022/10/16 03:50:39;;;;;;;27.83;19.97;;;13.40;99.90;;;;;;10434449;28;20195;-84
2022/10/16 03:56:00;;;;;;;29.07;22.97;;;13.50;99.90;;;;;;10390819;28;20235;-83
2022/10/16 04:01:22;;;;;;;31.43;24.00;;;13.50;99.90;;;;;;10416355;28;20192;-86
2022/10/16 04:06:43;;;;;;;30.93;20.93;;;13.50;99.90;;;;;;10402943;28;20235;-86
2022/10/16 04:12:04;;;;;;;32.17;24.37;;;13.50;99.90;;;;;;10416810;28;20231;-85
2022/10/16 04:17:26;;;;;;;33.07;25.30;;;13.40;99.90;;;;;;10407017;28;20225;-86
2022/10/16 04:22:47;;;;;;;37.17;25.80;;;13.40;99.90;;;;;;10465858;28;20199;-86
2022/10/16 04:28:08;;;;;;;30.30;23.50;;;13.30;99.90;;;;;;10464096;28;20246;-86
2022/10/16 04:33:29;;;;;;;35.17;25.83;;;13.30;99.90;;;;;;10420659;28;20246;-85
2022/10/16 04:38:51;;;;;;;33.87;24.70;;;13.30;99.90;;;;;;10401094;28;20261;-87
2022/10/16 04:44:12;;;;;;;35.17;26.17;;;13.30;99.90;;;;;;10400771;28;20596;-85
2022/10/16 04:49:33;;;;;;;36.93;28.00;;;13.20;99.90;;;;;;10445298;28;20199;-86
2022/10/16 04:54:56;;;;;;;41.87;29.77;;;13.20;99.90;;;;;;10454726;28;20589;-86
2022/10/16 05:00:17;;;;;;;35.37;28.57;;;13.20;99.90;;;;;;10468934;28;20221;-85
2022/10/16 05:05:43;;;;;;;37.50;28.33;;;13.20;99.90;;;;;;10468138;28;20303;-86
2022/10/16 05:11:04;;;;;;;40.73;28.03;;;13.20;99.90;;;;;;10482670;28;20205;-86
2022/10/16 05:16:26;;;;;;;35.97;27.23;;;13.10;99.90;;;;;;10468442;28;20361;-86
2022/10/16 05:21:47;;;;;;;53.07;34.67;;;13.10;99.90;;;;;;10441446;28;20225;-85
2022/10/16 05:27:10;;;;;;;59.23;40.77;;;13.10;99.90;;;;;;10445250;28;20223;-85
2022/10/16 05:32:32;;;;;;;47.37;34.30;;;13.10;99.90;;;;;;10415601;28;20209;-86
2022/10/16 05:37:53;;;;;;;42.00;31.50;;;13.10;99.90;;;;;;10415268;28;20199;-86
2022/10/16 05:43:14;;;;;;;45.13;31.63;;;13.10;99.90;;;;;;10429497;28;20229;-85
2022/10/16 05:48:36;;;;;;;44.97;32.43;;;13.20;99.90;;;;;;10431051;28;20273;-85
2022/10/16 05:53:57;;;;;;;45.70;31.70;;;13.20;99.90;;;;;;10466415;28;20199;-86
2022/10/16 05:59:18;;;;;;;45.53;31.07;;;13.20;99.90;;;;;;10452455;28;20199;-86
2022/10/16 06:04:40;;;;;;;40.63;31.33;;;13.10;99.90;;;;;;10482628;28;20304;-86
2022/10/16 06:10:02;;;;;;;38.83;29.73;;;13.10;99.90;;;;;;10482659;28;20204;-86
2022/10/16 06:15:23;;;;;;;42.20;31.77;;;13.10;99.90;;;;;;10465629;28;20280;-85
2022/10/16 06:20:44;;;;;;;38.80;29.67;;;13.00;99.90;;;;;;10447593;28;20194;-86
2022/10/16 06:26:11;;;;;;;41.53;29.13;;;13.00;99.90;;;;;;10443324;28;20544;-85
2022/10/16 06:31:33;;;;;;;40.40;29.97;;;13.00;99.90;;;;;;10425440;28;20239;-84
2022/10/16 06:36:55;;;;;;;39.93;30.47;;;13.00;99.90;;;;;;10424970;28;20497;-86
2022/10/16 06:42:16;;;;;;;45.47;31.97;;;13.10;99.90;;;;;;10397935;28;20194;-85
2022/10/16 06:47:37;;;;;;;41.90;30.43;;;13.10;99.90;;;;;;10413950;28;20538;-84
2022/10/16 06:52:58;;;;;;;38.30;26.97;;;13.10;99.90;;;;;;10436667;28;20191;-86
2022/10/16 06:58:21;;;;;;;44.97;31.20;;;13.20;99.90;;;;;;10444429;28;20196;-85
2022/10/16 07:03:44;;;;;;;40.27;30.20;;;13.20;99.90;;;;;;10429779;28;20265;-86
2022/10/16 07:09:09;;;;;;;45.60;31.47;;;13.20;99.90;;;;;;10444132;28;20207;-86
2022/10/16 07:14:31;;;;;;;42.57;31.53;;;13.20;99.90;;;;;;10441527;28;20215;-86
2022/10/16 07:19:53;;;;;;;49.40;32.47;;;13.20;99.90;;;;;;10423406;28;20206;-86
2022/10/16 07:25:14;;;;;;;41.30;30.30;;;13.20;99.90;;;;;;10457663;28;20280;-86
2022/10/16 07:30:37;;;;;;;36.37;27.77;;;13.30;99.90;;;;;;10446093;28;20604;-86
2022/10/16 07:35:57;;;;;;;41.77;29.57;;;13.30;99.90;;;;;;10461314;28;20444;-85
2022/10/16 07:41:19;;;;;;;42.00;29.80;;;13.40;99.90;;;;;;10461964;28;20198;-85
2022/10/16 07:46:40;;;;;;;46.57;29.40;;;13.40;99.90;;;;;;10477593;28;20227;-86
2022/10/16 07:52:02;;;;;;;36.13;27.47;;;13.50;99.90;;;;;;10486790;28;20187;-86
2022/10/16 07:57:23;;;;;;;40.30;26.73;;;13.50;99.90;;;;;;10471712;28;20202;-86
2022/10/16 08:02:45;;;;;;;36.63;25.77;;;13.50;99.90;;;;;;10471129;28;20200;-87
2022/10/16 08:08:13;;;;;;;39.10;27.90;;;13.50;99.90;;;;;;10471360;28;20281;-86
2022/10/16 08:13:35;;;;;;;33.20;25.17;;;13.50;99.90;;;;;;10457323;28;20205;-86
2022/10/16 08:18:56;;;;;;;35.57;26.63;;;13.60;99.90;;;;;;10458481;28;20206;-85
2022/10/16 08:24:18;;;;;;;39.37;26.53;;;13.60;99.90;;;;;;10452927;28;20237;-86
2022/10/16 08:29:39;;;;;;;37.67;27.63;;;13.60;99.90;;;;;;10450448;28;20317;-86
2022/10/16 08:35:00;;;;;;;36.83;26.90;;;13.70;99.90;;;;;;10387646;28;20233;-86
2022/10/16 08:40:26;;;;;;;35.40;24.73;;;13.70;99.90;;;;;;10412102;28;20281;-84
2022/10/16 08:46:21;;;;;;;37.00;26.00;;;13.70;99.90;;;;;;10471174;28;20221;-83
2022/10/16 08:51:42;;;;;;;29.30;23.00;;;13.80;99.90;;;;;;10456619;28;20496;-86
2022/10/16 08:57:14;;;;;;;31.03;24.10;;;13.90;99.90;;;;;;10455482;28;20277;-85
2022/10/16 09:02:45;;;;;;;30.03;23.13;;;13.90;99.90;;;;;;10485409;28;20249;-86
2022/10/16 09:08:27;;;;;;;25.10;21.80;;;13.90;99.90;;;;;;10485319;28;20234;-84
2022/10/16 09:13:52;;;;;;;29.80;21.97;;;;;;;;;;10454559;28;20200;-86
2022/10/16 09:19:37;;;;;;;25.75;22.75;;;;;;;;;;10426807;28;20227;-87
2022/10/16 09:25:10;;;;;;;31.33;23.87;;;;;;;;;;10414012;28;20296;-86
2022/10/16 09:30:32;;;;;;;27.13;22.63;;;;;;;;;;10445391;28;20254;-84
2022/10/16 09:35:54;;;;;;;25.17;19.67;;;;;;;;;;10453753;28;20193;-86
2022/10/16 09:41:16;;;;;;;28.45;21.48;;;;;;;;;;10439323;28;20396;-84
2022/10/16 09:46:40;;;;;;;23.20;19.60;;;;;;;;;;10474750;28;20219;-87
2022/10/16 09:52:20;;;;;;;28.83;23.40;;;;;;;;;;10466947;28;20202;-83
2022/10/16 09:57:52;;;;;;;25.27;20.48;;;;;;;;;;10472353;28;20257;-87
2022/10/16 10:03:13;;;;;;;22.17;19.42;;;;;;;;;;10481074;28;20269;-86
2022/10/16 10:08:35;;;;;;;21.83;19.17;;;;;;;;;;10484271;28;20306;-86
2022/10/16 10:14:04;;;;;;;28.77;22.88;;;;;;;;;;10480197;28;20194;-83
2022/10/16 10:19:28;;;;;;;24.00;19.80;;;;;;;;;;10452231;28;20205;-84
2022/10/16 10:24:56;;;;;;;23.83;17.85;;;;;;;;;;10468700;28;20265;-83
2022/10/16 10:30:36;;;;;;;24.13;17.65;;;;;;;;;;10445750;28;20470;-84
2022/10/16 10:36:10;;;;;;;20.35;16.35;;;;;;;;;;10472481;28;20203;-86
2022/10/16 10:41:42;;;;;;;21.33;14.65;;;;;;;;;;10459021;28;20280;-83
2022/10/16 10:47:09;;;;;;;24.95;14.88;;;;;;;;;;10434793;28;20603;-87
2022/10/16 10:52:33;;;;;;;18.95;13.48;;;;;;;;;;10423646;28;20198;-87
2022/10/16 10:57:58;;;;;;;18.33;13.10;;;;;;;;;;10426868;28;20198;-86
2022/10/16 11:03:19;;;;;;;14.93;11.70;;;;;;;;;;10409236;28;20208;-86
2022/10/16 11:08:53;;;;;;;12.35;10.40;;;16.30;99.90;;;;;;10408685;28;20237;-84
2022/10/16 11:14:26;;;;;;;14.93;10.48;;;16.60;99.90;;;;;;10442944;28;20192;-86
2022/10/16 11:19:53;;;;;;;15.43;11.13;;;16.60;99.90;;;;;;10408664;28;20201;-85
2022/10/16 11:25:23;;;;;;;11.20;9.30;;;16.40;99.90;;;;;;10441187;28;20222;-83
2022/10/16 11:30:57;;;;;;;17.08;10.68;;;16.50;99.90;;;;;;10423259;28;20244;-85
2022/10/16 11:36:53;;;;;;;13.57;9.77;;;16.40;99.90;;;;;;10411351;28;20207;-84
2022/10/16 11:42:29;;;;;;;13.05;9.18;;;16.40;99.90;;;;;;10379498;28;20208;-84
2022/10/16 11:48:16;;;;;;;10.73;8.77;;;16.50;99.90;;;;;;10482745;28;20225;-84
2022/10/16 11:53:52;;;;;;;10.07;7.80;;;17.00;99.90;;;;;;10476428;28;20252;-84
2022/10/16 11:59:20;;;;;;;14.95;8.18;;;;;;;;;;10448984;28;20513;-85
2022/10/16 12:05:24;;;;;;;12.35;8.32;;;18.30;99.90;;;;;;10466138;28;20227;-83
2022/10/16 12:10:47;;;;;;;15.98;10.13;;;18.30;99.90;;;;;;10352136;28;20378;-84
2022/10/16 12:16:11;;;;;;;10.43;6.43;;;18.30;1.00;;;;;;10338202;28;20225;-83
2022/10/16 12:21:33;;;;;;;8.18;7.13;;;18.10;1.00;;;;;;10324428;28;20210;-86
2022/10/16 12:26:55;;;;;;;12.35;8.20;;;17.90;1.00;;;;;;10341019;28;20245;-86
2022/10/16 12:32:39;;;;;;;9.85;7.88;;;17.70;1.00;;;;;;10302567;28;20564;-86
2022/10/16 12:38:16;;;;;;;8.55;7.03;;;17.50;1.00;;;;;;10314083;28;20242;-84
2022/10/16 12:43:43;;;;;;;9.18;7.80;;;17.30;1.00;;;;;;10366634;28;20283;-84
2022/10/16 12:49:15;;;;;;;10.73;6.88;;;17.10;1.00;;;;;;10469317;28;20421;-84
2022/10/16 12:54:38;;;;;;;9.07;6.85;;;17.00;1.00;;;;;;10468989;28;20209;-85
2022/10/16 13:00:02;;;;;;;6.80;6.03;;;17.20;1.00;;;;;;10483871;28;20485;-86
2022/10/16 13:05:45;;;;;;;8.40;6.53;;;17.50;1.00;;;;;;10469053;28;20245;-86
2022/10/16 13:11:31;;;;;;;7.63;6.32;;;18.10;1.00;;;;;;10483887;28;20191;-85
2022/10/16 13:17:07;;;;;;;13.35;6.82;;;18.30;99.90;;;;;;10437988;28;20210;-86
2022/10/16 13:22:47;;;;;;;6.90;5.47;;;17.90;99.90;;;;;;10412061;28;20212;-86
2022/10/16 13:28:10;;;;;;;11.65;8.02;;;17.80;1.00;;;;;;10408181;28;20256;-83
2022/10/16 13:33:43;;;;;;;10.55;7.38;;;17.90;1.00;;;;;;10417969;28;20211;-83
2022/10/16 13:39:11;;;;;;;9.55;7.93;;;17.80;99.90;;;;;;10430496;28;20204;-83
2022/10/16 13:44:54;;;;;;;7.28;6.45;;;17.60;99.90;;;;;;10419196;28;20203;-86
2022/10/16 13:50:17;;;;;;;8.20;7.40;;;17.30;1.00;;;;;;10403464;28;20200;-83
2022/10/16 13:55:39;;;;;;;10.50;7.75;;;;;;;;;;10398256;28;20221;-84
2022/10/16 14:01:05;;;;;;;9.55;8.60;;;16.80;1.00;;;;;;10428552;28;20219;-86
2022/10/16 14:06:26;;;;;;;14.68;10.20;;;16.70;1.00;;;;;;10413785;28;20302;-83
2022/10/16 14:11:58;;;;;;;14.45;9.07;;;16.70;1.00;;;;;;10411228;28;20249;-85
2022/10/16 14:17:24;;;;;;;10.52;7.57;;;16.60;1.00;;;;;;10473728;28;20198;-83
2022/10/16 14:22:46;;;;;;;10.10;9.05;;;16.60;1.00;;;;;;10446283;28;20278;-86
2022/10/16 14:28:17;;;;;;;8.38;7.57;;;16.50;1.00;;;;;;10459374;28;20265;-84
2022/10/16 14:33:38;;;;;;;8.52;6.95;;;16.60;1.00;;;;;;10424513;28;20267;-84
2022/10/16 14:39:16;;;;;;;8.30;6.32;;;;;;;;;;10426921;28;20268;-84
2022/10/16 14:44:40;;;;;;;8.00;6.82;;;;;;;;;;10431790;28;20497;-84
2022/10/16 14:50:02;;;;;;;7.65;6.85;;;;;;;;;;10480930;28;20410;-84
2022/10/16 14:55:24;;;;;;;8.35;7.35;;;;;;;;;;10478288;28;20200;-86
2022/10/16 15:00:46;;;;;;;9.55;8.02;;;;;;;;;;10440722;28;20226;-85
2022/10/16 15:06:14;;;;;;;9.48;7.43;;;16.10;1.00;;;;;;10422567;28;20230;-83
2022/10/16 15:11:36;;;;;;;12.02;9.43;;;;;;;;;;10422172;28;20207;-86
2022/10/16 15:16:58;;;;;;;22.92;15.07;;;15.90;1.00;;;;;;10429092;28;20440;-85
2022/10/16 15:22:19;;;;;;;23.73;13.55;;;15.80;19.50;;;;;;10408453;28;20195;-84
2022/10/16 15:27:41;;;;;;;12.18;9.63;;;;;;;;;;10440384;28;20233;-84
2022/10/16 15:33:03;;;;;;;14.20;9.45;;;;;;;;;;10424472;28;20282;-84
2022/10/16 15:38:25;;;;;;;13.98;10.20;;;;;;;;;;10421940;28;20203;-84
2022/10/16 15:43:48;;;;;;;13.68;11.40;;;15.70;86.80;;;;;;10473966;28;20193;-85
2022/10/16 15:49:10;;;;;;;13.60;11.25;;;;;;;;;;10457234;28;20244;-84
2022/10/16 15:54:32;;;;;;;12.27;10.73;;;;;;;;;;10473717;28;20289;-84
2022/10/16 15:59:53;;;;;;;20.45;13.48;;;;;;;;;;10404886;28;20443;-84
2022/10/16 16:05:15;;;;;;;22.50;13.60;;;14.90;99.90;;;;;;10416756;28;20225;-84
2022/10/16 16:10:37;;;;;;;30.77;24.92;;;14.80;99.90;;;;;;10402425;28;20218;-84
2022/10/16 16:15:58;;;;;;;27.83;23.17;;;14.70;99.90;;;;;;10401630;28;20511;-83
2022/10/16 16:21:19;;;;;;;22.67;17.52;;;14.30;99.90;;;;;;10408637;28;20207;-83
2022/10/16 16:26:43;;;;;;;22.42;15.57;;;14.30;99.90;;;;;;10447439;28;20305;-83
2022/10/16 16:32:04;;;;;;;26.35;16.00;;;14.20;99.90;;;;;;10396003;28;20319;-85
2022/10/16 16:37:25;;;;;;;27.30;18.42;;;14.10;99.90;;;;;;10373534;28;20215;-83
2022/10/16 16:42:48;;;;;;;33.35;18.88;;;14.00;99.90;;;;;;10408623;28;20217;-84
2022/10/16 16:48:09;;;;;;;25.00;16.88;;;13.90;99.90;;;;;;10471715;28;20534;-84
2022/10/16 16:53:33;;;;;;;22.05;13.93;;;13.90;99.90;;;;;;10435375;28;20198;-85
2022/10/16 16:58:56;;;;;;;20.85;13.05;;;;;;;;;;10440988;28;20254;-84
2022/10/16 17:04:18;;;;;;;22.27;13.67;;;;;;;;;;10427343;28;20221;-86
2022/10/16 17:09:39;;;;;;;23.95;17.65;;;13.60;99.90;;;;;;10427616;28;20223;-83
2022/10/16 17:15:01;;;;;;;23.63;16.07;;;;;;;;;;10412998;28;20274;-86
2022/10/16 17:20:23;;;;;;;21.10;14.88;;;;;;;;;;10426273;28;20237;-85
2022/10/16 17:25:45;;;;;;;22.90;14.85;;;13.30;99.90;;;;;;10475688;28;20301;-84
2022/10/16 17:31:14;;;;;;;24.07;15.90;;;;;;;;;;10452487;28;20430;-84
2022/10/16 17:36:37;;;;;;;25.13;17.10;;;;;;;;;;10412782;28;20204;-86
2022/10/16 17:41:59;;;;;;;35.20;21.60;;;;;;;;;;10412611;28;20192;-83
2022/10/16 17:47:22;;;;;;;37.33;23.87;;;;;;;;;;10401121;28;20232;-83
2022/10/16 17:52:44;;;;;;;39.73;25.60;;;;;;;;;;10412332;28;20196;-83
2022/10/16 17:58:05;;;;;;;42.20;27.03;;;;;;;;;;10411698;28;20245;-84
2022/10/16 18:03:27;;;;;;;44.47;28.17;;;;;;;;;;10462691;28;20277;-85
2022/10/16 18:08:48;;;;;;;47.70;27.97;;;;;;;;;;10467978;28;20221;-86
2022/10/16 18:14:14;;;;;;;43.97;27.10;;;;;;;;;;10454330;28;20536;-84
2022/10/16 18:19:36;;;;;;;46.63;28.50;;;;;;;;;;10444822;28;20198;-85
2022/10/16 18:24:57;;;;;;;71.23;38.40;;;;;;;;;;10430791;28;20195;-84
2022/10/16 18:30:18;;;;;;;73.23;40.07;;;;;;;;;;10442533;28;20242;-83
2022/10/16 18:35:40;;;;;;;69.37;38.83;;;;;;;;;;10411147;28;20190;-84
2022/10/16 18:41:04;;;;;;;65.23;35.80;;;;;;;;;;10415302;28;20249;-83
2022/10/16 18:46:26;;;;;;;55.60;34.07;;;;;;;;;;10457562;28;20584;-84
2022/10/16 18:51:49;;;;;;;47.27;29.53;;;;;;;;;;10423711;28;20190;-83
2022/10/16 18:57:11;;;;;;;42.50;23.20;;;;;;;;;;10423184;28;20204;-83
2022/10/16 19:02:32;;;;;;;45.80;21.00;;;;;;;;;;10423426;28;20211;-86
2022/10/16 19:07:54;;;;;;;55.23;22.70;;;;;;;;;;10425414;28;20260;-85
2022/10/16 19:13:16;;;;;;;43.73;21.67;;;;;;;;;;10450377;28;20198;-85
2022/10/16 19:18:38;;;;;;;49.50;25.73;;;;;;;;;;10480205;28;20200;-83
2022/10/16 19:24:00;;;;;;;50.70;27.27;;;;;;;;;;10413000;28;20249;-84
2022/10/16 19:29:22;;;;;;;39.27;27.13;;;;;;;;;;10442903;28;20615;-84
2022/10/16 19:34:44;;;;;;;33.80;22.20;;;;;;;;;;10452968;28;20194;-83
2022/10/16 19:40:06;;;;;;;27.10;20.93;;;;;;;;;;10450088;28;20416;-83
2022/10/16 19:45:28;;;;;;;53.13;28.33;;;;;;;;;;10484259;28;20244;-84
2022/10/16 19:50:50;;;;;;;60.07;33.00;;;;;;;;;;10477105;28;20512;-83
2022/10/16 19:56:16;;;;;;;35.67;23.10;;;;;;;;;;10465536;28;20555;-83
2022/10/16 20:01:40;;;;;;;32.50;19.57;;;12.40;99.90;;;;;;10465611;28;20240;-84
2022/10/16 20:07:01;;;;;;;31.63;16.43;;;;;;;;;;10462678;28;20236;-83
2022/10/16 20:12:23;;;;;;;25.80;13.37;;;;;;;;;;10470294;28;20257;-85
2022/10/16 20:17:44;;;;;;;29.83;14.63;;;12.40;99.90;;;;;;10458289;28;20276;-84
2022/10/16 20:23:06;;;;;;;37.73;19.13;;;;;;;;;;10442072;28;20191;-84
2022/10/16 20:28:27;;;;;;;36.93;19.13;;;12.50;99.90;;;;;;10468892;28;20254;-84
2022/10/16 20:33:54;;;;;;;55.73;27.97;;;12.20;99.90;;;;;;10456802;28;20201;-83
2022/10/16 20:39:15;;;;;;;50.23;25.20;;;;;;;;;;10456928;28;20261;-82
2022/10/16 20:44:36;;;;;;;47.50;24.10;;;12.10;99.90;;;;;;10413760;28;20248;-82
2022/10/16 20:49:58;;;;;;;45.97;22.97;;;;;;;;;;10406042;28;20231;-83
2022/10/16 20:55:19;;;;;;;40.77;22.40;;;11.80;99.90;;;;;;10401536;28;20263;-85
2022/10/16 21:00:40;;;;;;;47.17;21.83;;;11.90;99.90;;;;;;10400586;28;20269;-85
2022/10/16 21:06:03;;;;;;;45.93;20.23;;;;;;;;;;10387167;28;20229;-85
2022/10/16 21:11:27;;;;;;;35.97;16.47;;;;;;;;;;10420789;28;20196;-84
2022/10/16 21:16:49;;;;;;;34.97;17.73;;;;;;;;;;10427354;28;20422;-84
2022/10/16 21:22:10;;;;;;;46.60;23.20;;;;;;;;;;10426339;28;20205;-84
2022/10/16 21:27:39;;;;;;;39.07;20.30;;;12.00;99.90;;;;;;10444597;28;20225;-83
2022/10/16 21:33:00;;;;;;;34.00;17.73;;;12.10;99.90;;;;;;10426114;28;20508;-83
2022/10/16 21:38:22;;;;;;;23.80;14.80;;;;;;;;;;10445160;28;20253;-83
2022/10/16 21:43:44;;;;;;;21.60;12.00;;;;;;;;;;10462502;28;20213;-83
2022/10/16 21:49:09;;;;;;;17.97;10.63;;;11.90;99.90;;;;;;10481313;28;20216;-83
2022/10/16 21:54:31;;;;;;;17.97;10.80;;;11.90;99.90;;;;;;10480767;28;20232;-84
2022/10/16 21:59:52;;;;;;;23.17;12.43;;;11.80;99.90;;;;;;10480365;28;20476;-83
2022/10/16 22:05:13;;;;;;;16.93;10.03;;;11.80;99.90;;;;;;10482398;28;20211;-84
2022/10/16 22:10:34;;;;;;;15.30;9.47;;;11.70;99.90;;;;;;10482301;28;20585;-83
2022/10/16 22:15:55;;;;;;;22.20;10.07;;;11.70;99.90;;;;;;10397368;28;20221;-83
2022/10/16 22:21:17;;;;;;;16.03;9.17;;;11.70;99.90;;;;;;10440253;28;20201;-81
2022/10/16 22:26:39;;;;;;;18.70;8.27;;;;;;;;;;10442977;28;20528;-83
2022/10/16 22:32:00;;;;;;;9.77;6.30;;;;;;;;;;10459445;28;20264;-83
2022/10/16 22:37:21;;;;;;;7.97;5.23;;;;;;;;;;10437611;28;20252;-83
2022/10/16 22:42:43;;;;;;;5.70;4.00;;;;;;;;;;10441032;28;20217;-83
2022/10/16 22:48:04;;;;;;;4.30;3.73;;;;;;;;;;10464391;28;20243;-84
2022/10/16 22:53:26;;;;;;;4.30;3.60;;;;;;;;;;10450479;28;20203;-83
2022/10/16 22:58:48;;;;;;;4.37;3.90;;;;;;;;;;10468075;28;20392;-82
2022/10/16 23:04:09;;;;;;;4.23;3.57;;;;;;;;;;10484309;28;20202;-86
2022/10/16 23:09:30;;;;;;;5.33;4.60;;;11.50;99.90;;;;;;10481227;28;20277;-82
2022/10/16 23:14:52;;;;;;;4.50;3.97;;;11.60;99.90;;;;;;10442131;28;20213;-83
2022/10/16 23:20:13;;;;;;;5.53;4.43;;;;;;;;;;10436548;28;20252;-84
2022/10/16 23:25:35;;;;;;;5.47;4.03;;;;;;;;;;10460488;28;20496;-82
2022/10/16 23:30:56;;;;;;;6.63;4.17;;;;;;;;;;10427341;28;20317;-83
2022/10/16 23:36:19;;;;;;;4.93;4.30;;;;;;;;;;10435822;28;20201;-82
2022/10/16 23:41:41;;;;;;;6.97;5.43;;;;;;;;;;10446889;28;20190;-83
2022/10/16 23:47:02;;;;;;;8.83;5.70;;;;;;;;;;10462940;28;20227;-84
2022/10/16 23:52:24;;;;;;;8.20;5.10;;;;;;;;;;10479647;28;20231;-85
2022/10/16 23:57:46;;;;;;;8.23;5.50;;;;;;;;;;10465364;28;20517;-84
